createdAt,value
2018-04-24T00:01:40.165Z,3.87
2018-04-24T00:04:07.719Z,4.10
2018-04-24T00:06:36.021Z,7.20
2018-04-24T00:09:03.574Z,3.50
2018-04-24T00:11:31.873Z,4.93
2018-04-24T00:14:00.195Z,4.60
2018-04-24T00:16:27.736Z,3.80
2018-04-24T00:18:56.058Z,4.93
2018-04-24T00:21:23.595Z,4.27
2018-04-24T00:23:51.174Z,4.80
2018-04-24T00:26:18.716Z,3.07
2018-04-24T00:28:46.270Z,5.33
2018-04-24T00:31:13.811Z,3.10
2018-04-24T00:33:41.371Z,3.50
2018-04-24T00:36:08.909Z,5.23
2018-04-24T00:38:37.234Z,7.30
2018-04-24T00:41:04.785Z,11.50
2018-04-24T00:43:33.126Z,2.70
2018-04-24T00:46:00.656Z,3.63
2018-04-24T00:48:28.217Z,2.63
2018-04-24T00:50:56.520Z,3.17
2018-04-24T00:53:35.945Z,4.07
2018-04-24T00:56:04.202Z,3.60
2018-04-24T00:58:31.746Z,5.30
2018-04-24T01:00:59.298Z,3.27
2018-04-24T01:03:26.826Z,3.70
2018-04-24T01:05:54.375Z,3.20
2018-04-24T01:08:21.933Z,2.27
2018-04-24T01:10:49.491Z,8.23
2018-04-24T01:13:18.883Z,2.80
2018-04-24T01:15:47.219Z,4.67
2018-04-24T01:18:15.528Z,3.07
2018-04-24T01:20:43.096Z,11.27
2018-04-24T01:23:10.636Z,5.70
2018-04-24T01:25:38.200Z,2.20
2018-04-24T01:28:05.755Z,12.57
2018-04-24T01:30:33.321Z,3.67
2018-04-24T01:33:01.632Z,3.80
2018-04-24T01:35:29.194Z,4.50
2018-04-24T01:37:56.741Z,3.93
2018-04-24T01:40:25.072Z,2.43
2018-04-24T01:42:52.620Z,7.90
2018-04-24T01:45:20.185Z,2.47
2018-04-24T01:47:48.521Z,2.80
2018-04-24T01:50:16.073Z,2.73
2018-04-24T01:52:43.640Z,2.83
2018-04-24T01:55:11.184Z,4.00
2018-04-24T01:57:39.521Z,2.13
2018-04-24T02:00:07.063Z,3.40
2018-04-24T02:02:34.633Z,3.77
2018-04-24T02:05:02.179Z,6.33
2018-04-24T02:07:30.514Z,4.90
2018-04-24T02:09:58.063Z,1.87
2018-04-24T02:12:25.608Z,2.10
2018-04-24T02:14:53.174Z,2.50
2018-04-24T02:17:20.720Z,2.83
2018-04-24T02:19:48.289Z,2.73
2018-04-24T02:22:15.840Z,3.37
2018-04-24T02:24:43.403Z,1.70
2018-04-24T02:27:10.952Z,2.53
2018-04-24T02:29:39.287Z,2.30
2018-04-24T02:32:07.609Z,3.10
2018-04-24T02:34:35.181Z,3.07
2018-04-24T02:37:02.726Z,2.73
2018-04-24T02:39:30.304Z,2.60
2018-04-24T02:41:57.851Z,2.30
2018-04-24T02:44:25.439Z,2.87
2018-04-24T02:46:52.994Z,2.50
2018-04-24T02:49:20.560Z,4.37
2018-04-24T02:51:48.114Z,6.37
2018-04-24T02:54:15.681Z,2.30
2018-04-24T02:56:44.001Z,5.40
2018-04-24T02:59:11.578Z,5.40
2018-04-24T03:01:39.128Z,5.27
2018-04-24T03:04:06.697Z,5.83
2018-04-24T03:06:34.244Z,2.73
2018-04-24T03:09:02.651Z,2.10
2018-04-24T03:11:30.197Z,3.90
2018-04-24T03:13:57.771Z,5.30
2018-04-24T03:16:25.316Z,2.50
2018-04-24T03:18:52.888Z,2.27
2018-04-24T03:21:20.430Z,9.00
2018-04-24T03:23:48.017Z,2.17
2018-04-24T03:26:15.568Z,2.50
2018-04-24T03:28:43.116Z,2.53
2018-04-24T03:31:11.454Z,3.53
2018-04-24T03:33:39.012Z,4.97
2018-04-24T03:36:06.580Z,3.03
2018-04-24T03:38:34.132Z,5.03
2018-04-24T03:41:01.700Z,2.70
2018-04-24T03:43:29.248Z,3.20
2018-04-24T03:45:56.816Z,7.83
2018-04-24T03:48:25.138Z,3.07
2018-04-24T03:50:52.703Z,5.33
2018-04-24T03:53:20.244Z,6.80
2018-04-24T03:55:47.819Z,2.33
2018-04-24T03:58:15.377Z,2.70
2018-04-24T04:00:42.940Z,3.20
2018-04-24T04:03:10.493Z,5.03
2018-04-24T04:05:38.055Z,8.63
2018-04-24T04:08:05.604Z,2.60
2018-04-24T04:10:33.171Z,6.57
2018-04-24T04:13:01.500Z,2.70
2018-04-24T04:15:29.074Z,5.10
2018-04-24T04:18:08.485Z,10.50
2018-04-24T04:20:47.936Z,4.13
2018-04-24T04:23:27.313Z,4.63
2018-04-24T04:25:54.880Z,3.23
2018-04-24T04:28:22.425Z,3.00
2018-04-24T04:30:51.572Z,2.97
2018-04-24T04:33:19.117Z,2.90
2018-04-24T04:35:46.674Z,3.50
2018-04-24T04:38:14.999Z,2.50
2018-04-24T04:40:42.556Z,2.33
2018-04-24T04:43:10.130Z,7.43
2018-04-24T04:45:37.721Z,2.50
2018-04-24T04:48:05.292Z,3.60
2018-04-24T04:50:33.616Z,4.40
2018-04-24T04:53:01.188Z,3.63
2018-04-24T04:55:28.731Z,2.53
2018-04-24T04:57:56.312Z,6.00
2018-04-24T05:00:23.874Z,2.07
2018-04-24T05:02:51.445Z,5.83
2018-04-24T05:05:19.060Z,5.13
2018-04-24T05:07:46.593Z,3.30
2018-04-24T05:10:14.139Z,4.87
2018-04-24T05:12:41.699Z,5.57
2018-04-24T05:15:09.524Z,2.83
2018-04-24T05:17:37.108Z,7.60
2018-04-24T05:20:04.709Z,2.20
2018-04-24T05:22:32.254Z,2.77
2018-04-24T05:24:59.804Z,7.87
2018-04-24T05:27:28.204Z,5.17
2018-04-24T05:29:55.793Z,4.60
2018-04-24T05:32:23.373Z,2.60
2018-04-24T05:34:51.684Z,2.63
2018-04-24T05:37:19.253Z,2.90
2018-04-24T05:39:46.800Z,4.43
2018-04-24T05:42:14.368Z,5.50
2018-04-24T05:44:41.907Z,4.73
2018-04-24T05:47:10.237Z,2.33
2018-04-24T05:49:38.556Z,7.13
2018-04-24T05:52:06.119Z,2.63
2018-04-24T05:54:33.677Z,2.83
2018-04-24T05:57:01.988Z,4.63
2018-04-24T05:59:29.592Z,2.40
2018-04-24T06:01:57.143Z,6.70
2018-04-24T06:04:24.706Z,3.57
2018-04-24T06:06:52.255Z,4.00
2018-04-24T06:09:20.593Z,5.13
2018-04-24T06:11:48.143Z,3.93
2018-04-24T06:14:15.715Z,3.83
2018-04-24T06:16:43.263Z,4.30
2018-04-24T06:19:10.841Z,6.33
2018-04-24T06:21:38.396Z,4.70
2018-04-24T06:24:06.736Z,6.30
2018-04-24T06:26:34.292Z,5.73
2018-04-24T06:29:01.868Z,16.00
2018-04-24T06:31:29.416Z,11.37
2018-04-24T06:33:57.747Z,6.40
2018-04-24T06:36:25.296Z,11.47
2018-04-24T06:38:52.872Z,14.17
2018-04-24T06:41:20.416Z,10.47
2018-04-24T06:43:48.003Z,6.00
2018-04-24T06:46:15.557Z,13.67
2018-04-24T06:48:43.907Z,11.00
2018-04-24T06:51:11.465Z,10.93
2018-04-24T06:53:39.036Z,11.17
2018-04-24T06:56:06.587Z,11.70
2018-04-24T06:58:34.176Z,7.47
2018-04-24T07:01:01.724Z,6.23
2018-04-24T07:03:29.296Z,13.53
2018-04-24T07:05:56.861Z,6.93
2018-04-24T07:08:24.452Z,9.13
2018-04-24T07:10:52.004Z,7.07
2018-04-24T07:13:19.551Z,8.93
2018-04-24T07:15:47.903Z,11.70
2018-04-24T07:18:15.461Z,14.70
2018-04-24T07:20:43.060Z,19.03
2018-04-24T07:23:10.611Z,9.83
2018-04-24T07:25:38.183Z,10.93
2018-04-24T07:28:05.737Z,13.27
2018-04-24T07:30:33.296Z,12.13
2018-04-24T07:33:00.935Z,15.40
2018-04-24T07:35:28.435Z,14.23
2018-04-24T07:37:56.017Z,14.93
2018-04-24T07:40:23.571Z,15.07
2018-04-24T07:42:51.915Z,13.43
2018-04-24T07:45:19.492Z,17.03
2018-04-24T07:47:47.087Z,19.27
2018-04-24T07:50:14.644Z,14.07
2018-04-24T07:52:42.204Z,16.97
2018-04-24T07:55:09.780Z,12.40
2018-04-24T07:57:37.335Z,14.30
2018-04-24T08:00:04.913Z,14.13
2018-04-24T08:02:32.463Z,14.57
2018-04-24T08:05:00.060Z,12.13
2018-04-24T08:07:27.616Z,15.13
2018-04-24T08:09:55.197Z,14.47
2018-04-24T08:12:22.784Z,18.70
2018-04-24T08:14:50.388Z,15.37
2018-04-24T08:17:18.731Z,14.70
2018-04-24T08:19:46.296Z,17.67
2018-04-24T08:22:13.873Z,16.97
2018-04-24T08:24:41.440Z,12.40
2018-04-24T08:27:09.045Z,18.00
2018-04-24T08:29:36.608Z,16.70
2018-04-24T08:32:04.167Z,17.20
2018-04-24T08:34:31.740Z,18.63
2018-04-24T08:36:59.298Z,22.07
2018-04-24T08:39:26.875Z,21.73
2018-04-24T08:41:54.428Z,21.70
2018-04-24T08:44:22.009Z,28.83
2018-04-24T08:46:49.568Z,23.03
2018-04-24T08:49:17.149Z,25.30
2018-04-24T08:51:44.712Z,25.27
2018-04-24T08:54:12.287Z,28.97
2018-04-24T08:56:39.845Z,22.37
2018-04-24T08:59:07.401Z,20.53
2018-04-24T09:01:35.744Z,29.73
2018-04-24T09:04:03.297Z,23.37
2018-04-24T09:06:30.876Z,21.10
2018-04-24T09:08:58.432Z,24.10
2018-04-24T09:11:26.003Z,23.70
2018-04-24T09:13:53.559Z,18.97
2018-04-24T09:16:21.127Z,27.00
2018-04-24T09:18:49.452Z,22.10
2018-04-24T09:21:17.013Z,25.20
2018-04-24T09:23:44.588Z,22.47
2018-04-24T09:26:12.140Z,26.60
2018-04-24T09:28:39.716Z,29.63
2018-04-24T09:31:07.270Z,25.07
2018-04-24T09:33:35.674Z,27.87
2018-04-24T09:36:03.195Z,22.63
2018-04-24T09:38:30.772Z,22.73
2018-04-24T09:40:58.333Z,20.30
2018-04-24T09:43:25.912Z,28.13
2018-04-24T09:45:53.480Z,26.90
2018-04-24T09:48:21.085Z,24.37
2018-04-24T09:50:49.408Z,34.83
2018-04-24T09:53:16.964Z,30.40
2018-04-24T09:55:44.553Z,24.40
2018-04-24T09:58:12.131Z,33.70
2018-04-24T10:00:39.701Z,29.10
2018-04-24T10:03:07.268Z,25.20
2018-04-24T10:05:34.843Z,25.10
2018-04-24T10:08:02.410Z,30.87
2018-04-24T10:10:30.002Z,29.90
2018-04-24T10:12:57.566Z,32.27
2018-04-24T10:15:25.152Z,25.70
2018-04-24T10:17:52.711Z,31.60
2018-04-24T10:20:20.287Z,29.37
2018-04-24T10:22:47.848Z,41.63
2018-04-24T10:25:15.407Z,38.33
2018-04-24T10:27:42.988Z,28.67
2018-04-24T10:30:10.552Z,31.53
2018-04-24T10:32:38.137Z,32.57
2018-04-24T10:35:05.701Z,32.63
2018-04-24T10:37:33.338Z,32.07
2018-04-24T10:40:00.860Z,33.17
2018-04-24T10:42:28.448Z,26.83
2018-04-24T10:44:56.000Z,27.37
2018-04-24T10:47:23.585Z,30.30
2018-04-24T10:49:51.140Z,22.80
2018-04-24T10:52:18.700Z,30.37
2018-04-24T10:54:46.276Z,23.03
2018-04-24T10:57:13.842Z,20.70
2018-04-24T10:59:41.448Z,16.07
2018-04-24T11:02:09.777Z,12.63
2018-04-24T11:04:38.133Z,18.83
2018-04-24T11:07:05.684Z,12.20
2018-04-24T11:09:33.232Z,17.80
2018-04-24T11:12:00.809Z,11.57
2018-04-24T11:14:28.359Z,12.30
2018-04-24T11:16:56.709Z,30.33
2018-04-24T11:19:24.270Z,17.80
2018-04-24T11:21:51.852Z,14.40
2018-04-24T11:24:19.408Z,14.30
2018-04-24T11:26:47.032Z,14.80
2018-04-24T11:29:14.556Z,16.17
2018-04-24T11:31:42.906Z,19.53
2018-04-24T11:34:10.553Z,14.87
2018-04-24T11:36:38.070Z,19.53
2018-04-24T11:39:06.557Z,21.33
2018-04-24T11:41:40.971Z,20.10
2018-04-24T11:44:08.567Z,23.07
2018-04-24T11:46:36.876Z,20.00
2018-04-24T11:49:04.483Z,16.70
2018-04-24T11:51:32.041Z,15.57
2018-04-24T11:53:59.595Z,23.00
2018-04-24T11:56:27.169Z,13.70
2018-04-24T11:58:54.720Z,18.00
2018-04-24T12:01:22.300Z,23.00
2018-04-24T12:03:49.863Z,17.97
2018-04-24T12:06:17.444Z,23.43
2018-04-24T12:08:44.995Z,20.97
2018-04-24T12:11:12.552Z,25.10
2018-04-24T12:13:40.131Z,22.97
2018-04-24T12:16:07.694Z,26.03
2018-04-24T12:18:35.275Z,24.27
2018-04-24T12:21:02.831Z,25.93
2018-04-24T12:23:31.171Z,25.10
2018-04-24T12:25:58.719Z,24.70
2018-04-24T12:28:26.295Z,28.13
2018-04-24T12:30:53.860Z,21.33
2018-04-24T12:33:21.441Z,28.10
2018-04-24T12:35:48.992Z,31.07
2018-04-24T12:38:16.576Z,29.67
2018-04-24T12:40:44.136Z,28.10
2018-04-24T12:43:11.716Z,30.87
2018-04-24T12:45:39.280Z,26.10
2018-04-24T12:48:06.865Z,21.90
2018-04-24T12:50:34.423Z,21.80
2018-04-24T12:53:02.004Z,24.40
2018-04-24T12:55:29.562Z,24.17
2018-04-24T12:57:57.881Z,18.90
2018-04-24T13:00:25.475Z,29.37
2018-04-24T13:02:53.031Z,28.50
2018-04-24T13:05:20.612Z,25.47
2018-04-24T13:07:48.174Z,28.33
2018-04-24T13:10:15.752Z,27.17
2018-04-24T13:12:43.309Z,20.53
2018-04-24T13:15:10.886Z,21.83
2018-04-24T13:17:38.463Z,25.70
2018-04-24T13:20:06.044Z,21.27
2018-04-24T13:22:33.605Z,23.93
2018-04-24T13:25:01.179Z,28.07
2018-04-24T13:27:28.729Z,21.63
2018-04-24T13:29:56.311Z,21.07
2018-04-24T13:32:23.873Z,23.20
2018-04-24T13:34:51.448Z,17.43
2018-04-24T13:37:19.138Z,23.10
2018-04-24T13:39:46.600Z,19.30
2018-04-24T13:42:14.248Z,22.20
2018-04-24T13:44:41.768Z,19.40
2018-04-24T13:47:09.311Z,19.07
2018-04-24T13:49:36.883Z,24.97
2018-04-24T13:52:04.440Z,24.80
2018-04-24T13:54:32.016Z,23.13
2018-04-24T13:56:59.584Z,20.83
2018-04-24T13:59:27.160Z,20.80
2018-04-24T14:01:54.720Z,20.40
2018-04-24T14:04:23.060Z,22.90
2018-04-24T14:06:50.616Z,22.80
2018-04-24T14:09:18.192Z,16.80
2018-04-24T14:11:45.739Z,19.37
2018-04-24T14:14:13.300Z,16.53
2018-04-24T14:16:40.881Z,19.47
2018-04-24T14:19:08.466Z,19.37
2018-04-24T14:21:36.060Z,19.83
2018-04-24T14:24:03.618Z,22.37
2018-04-24T14:26:31.200Z,20.93
2018-04-24T14:28:58.756Z,25.90
2018-04-24T14:31:26.337Z,17.93
2018-04-24T14:33:53.899Z,18.17
2018-04-24T14:36:21.478Z,20.27
2018-04-24T14:38:49.034Z,15.17
2018-04-24T14:41:16.608Z,18.63
2018-04-24T14:43:44.163Z,16.63
2018-04-24T14:46:11.746Z,15.40
2018-04-24T14:48:39.301Z,16.13
2018-04-24T14:51:06.875Z,20.70
2018-04-24T14:53:34.435Z,14.70
2018-04-24T14:56:02.783Z,14.20
2018-04-24T14:58:30.337Z,15.30
2018-04-24T15:00:57.919Z,14.57
2018-04-24T15:03:25.480Z,14.13
2018-04-24T15:05:53.059Z,16.20
2018-04-24T15:08:20.684Z,14.03
2018-04-24T15:10:49.034Z,16.70
2018-04-24T15:13:16.633Z,15.83
2018-04-24T15:15:44.206Z,15.17
2018-04-24T15:18:11.768Z,16.20
2018-04-24T15:20:39.339Z,20.30
2018-04-24T15:23:06.893Z,17.60
2018-04-24T15:25:34.474Z,15.90
2018-04-24T15:28:02.366Z,19.43
2018-04-24T15:30:29.938Z,14.50
2018-04-24T15:32:57.497Z,16.40
2018-04-24T15:35:25.071Z,14.83
2018-04-24T15:37:52.638Z,18.13
2018-04-24T15:40:20.218Z,21.50
2018-04-24T15:42:47.812Z,14.73
2018-04-24T15:45:16.160Z,15.80
2018-04-24T15:47:44.484Z,18.00
2018-04-24T15:50:12.828Z,15.60
2018-04-24T15:52:40.410Z,17.00
2018-04-24T15:55:07.970Z,16.80
2018-04-24T15:57:35.547Z,17.50
2018-04-24T16:00:03.119Z,16.00
2018-04-24T16:02:30.713Z,16.07
2018-04-24T16:04:58.272Z,17.20
2018-04-24T16:07:25.852Z,16.90
2018-04-24T16:09:53.413Z,15.27
2018-04-24T16:12:20.987Z,20.67
2018-04-24T16:14:48.562Z,16.17
2018-04-24T16:17:16.142Z,18.33
2018-04-24T16:19:43.704Z,18.10
2018-04-24T16:22:11.285Z,17.83
2018-04-24T16:24:38.845Z,17.47
2018-04-24T16:27:06.428Z,15.63
2018-04-24T16:29:34.783Z,17.13
2018-04-24T16:32:02.369Z,16.33
2018-04-24T16:34:29.971Z,16.43
2018-04-24T16:36:57.567Z,20.33
2018-04-24T16:39:27.559Z,16.60
2018-04-24T16:41:55.200Z,18.13
2018-04-24T16:44:22.761Z,18.83
2018-04-24T16:46:50.980Z,17.73
2018-04-24T16:49:19.307Z,15.57
2018-04-24T16:51:47.648Z,17.93
2018-04-24T16:54:15.207Z,16.90
2018-04-24T16:56:42.783Z,16.53
2018-04-24T16:59:10.339Z,16.87
2018-04-24T17:01:37.916Z,17.17
2018-04-24T17:04:05.475Z,16.80
2018-04-24T17:06:33.816Z,17.47
2018-04-24T17:09:01.381Z,21.43
2018-04-24T17:11:29.000Z,15.93
2018-04-24T17:13:57.325Z,17.37
2018-04-24T17:16:24.928Z,20.53
2018-04-24T17:18:52.499Z,17.03
2018-04-24T17:21:20.072Z,16.63
2018-04-24T17:23:47.627Z,17.80
2018-04-24T17:26:15.207Z,20.83
2018-04-24T17:28:42.765Z,15.57
2018-04-24T17:31:10.344Z,15.20
2018-04-24T17:33:37.903Z,18.03
2018-04-24T17:36:05.488Z,15.00
2018-04-24T17:38:33.062Z,16.23
2018-04-24T17:41:00.631Z,16.97
2018-04-24T17:43:28.975Z,18.87
2018-04-24T17:45:57.303Z,15.60
2018-04-24T17:48:24.888Z,16.47
2018-04-24T17:50:52.448Z,15.77
2018-04-24T17:53:20.034Z,15.97
2018-04-24T17:55:47.680Z,16.47
2018-04-24T17:58:15.212Z,14.73
2018-04-24T18:00:43.536Z,15.10
2018-04-24T18:03:11.112Z,17.30
2018-04-24T18:05:38.674Z,17.33
2018-04-24T18:08:06.251Z,18.27
2018-04-24T18:10:33.812Z,17.37
2018-04-24T18:13:01.404Z,18.77
2018-04-24T18:15:28.969Z,14.93
2018-04-24T18:17:56.546Z,17.27
2018-04-24T18:20:24.104Z,26.40
2018-04-24T18:22:51.692Z,19.60
2018-04-24T18:25:19.248Z,17.83
2018-04-24T18:27:46.866Z,16.60
2018-04-24T18:30:14.415Z,18.00
2018-04-24T18:32:41.991Z,20.13
2018-04-24T18:35:09.550Z,18.47
2018-04-24T18:37:37.220Z,27.20
2018-04-24T18:40:04.720Z,25.23
2018-04-24T18:42:33.068Z,20.90
2018-04-24T18:45:00.635Z,21.13
2018-04-24T18:47:28.249Z,25.00
2018-04-24T18:49:55.800Z,18.73
2018-04-24T18:52:23.384Z,24.67
2018-04-24T18:54:50.944Z,18.23
2018-04-24T18:57:18.500Z,21.77
2018-04-24T18:59:46.080Z,19.67
2018-04-24T19:02:13.638Z,22.13
2018-04-24T19:04:41.231Z,21.33
2018-04-24T19:07:08.783Z,24.90
2018-04-24T19:09:36.361Z,19.47
2018-04-24T19:12:03.924Z,21.47
2018-04-24T19:14:31.505Z,24.13
2018-04-24T19:16:59.078Z,19.00
2018-04-24T19:19:26.655Z,18.80
2018-04-24T19:21:54.223Z,19.67
2018-04-24T19:24:27.480Z,18.47
2018-04-24T19:26:55.042Z,18.00
2018-04-24T19:29:22.608Z,20.40
2018-04-24T19:34:53.793Z,23.13
2018-04-24T19:37:21.343Z,20.60
2018-04-24T19:39:54.643Z,22.73
2018-04-24T19:42:22.203Z,23.50
2018-04-24T19:44:49.759Z,21.40
2018-04-24T19:47:18.115Z,21.30
2018-04-24T19:49:51.317Z,22.33
2018-04-24T19:52:18.897Z,22.10
2018-04-24T19:54:52.088Z,20.90
2018-04-24T19:57:19.666Z,26.57
2018-04-24T19:59:47.236Z,18.17
2018-04-24T20:02:14.810Z,27.00
2018-04-24T20:04:42.380Z,18.87
2018-04-24T20:07:09.966Z,20.17
2018-04-24T20:09:37.543Z,19.47
2018-04-24T20:12:05.141Z,20.60
2018-04-24T20:14:33.460Z,21.00
2018-04-24T20:17:01.028Z,23.20
2018-04-24T20:19:28.590Z,22.47
2018-04-24T20:21:56.169Z,20.33
2018-04-24T20:24:23.720Z,20.47
2018-04-24T20:26:51.302Z,19.20
2018-04-24T20:29:18.863Z,17.50
2018-04-24T20:31:46.444Z,19.63
2018-04-24T20:34:13.999Z,21.53
2018-04-24T20:36:42.340Z,19.80
2018-04-24T20:39:09.900Z,19.93
2018-04-24T20:41:37.472Z,19.73
2018-04-24T20:44:05.029Z,18.10
2018-04-24T20:46:32.629Z,18.37
2018-04-24T20:49:00.188Z,21.73
2018-04-24T20:51:27.742Z,17.00
2018-04-24T20:53:55.324Z,19.07
2018-04-24T20:56:22.892Z,20.83
2018-04-24T20:58:50.467Z,19.90
2018-04-24T21:01:18.012Z,18.10
2018-04-24T21:03:46.356Z,20.07
2018-04-24T21:06:14.003Z,20.40
2018-04-24T21:08:41.516Z,22.47
2018-04-24T21:11:09.076Z,20.57
2018-04-24T21:13:36.656Z,23.40
2018-04-24T21:16:04.208Z,22.50
2018-04-24T21:18:31.827Z,20.60
2018-04-24T21:21:00.148Z,21.03
2018-04-24T21:23:27.719Z,19.77
2018-04-24T21:25:55.268Z,17.13
2018-04-24T21:28:23.676Z,18.03
2018-04-24T21:30:51.242Z,19.17
2018-04-24T21:33:18.819Z,17.77
2018-04-24T21:35:46.444Z,22.93
2018-04-24T21:38:13.977Z,23.20
2018-04-24T21:40:41.536Z,22.10
2018-04-24T21:43:09.107Z,24.30
2018-04-24T21:45:36.665Z,20.03
2018-04-24T21:48:04.252Z,20.53
2018-04-24T21:50:31.811Z,23.00
2018-04-24T21:52:59.400Z,23.00
2018-04-24T21:55:26.951Z,22.33
2018-04-24T21:57:55.295Z,21.60
2018-04-24T22:00:22.856Z,25.57
2018-04-24T22:02:51.180Z,22.10
2018-04-24T22:05:19.524Z,28.10
2018-04-24T22:07:47.081Z,23.20
2018-04-24T22:10:14.656Z,23.03
2018-04-24T22:12:42.212Z,25.93
2018-04-24T22:15:09.804Z,36.17
2018-04-24T22:17:37.357Z,23.23
2018-04-24T22:20:04.931Z,26.87
2018-04-24T22:22:32.496Z,32.00
2018-04-24T22:25:00.072Z,27.93
2018-04-24T22:27:27.663Z,26.90
2018-04-24T22:29:55.237Z,26.63
2018-04-24T22:32:22.806Z,28.93
2018-04-24T22:34:50.392Z,30.87
2018-04-24T22:37:17.952Z,28.60
2018-04-24T22:39:45.538Z,26.83
2018-04-24T22:42:13.097Z,27.07
2018-04-24T22:44:40.680Z,26.73
2018-04-24T22:47:08.239Z,30.13
2018-04-24T22:49:35.820Z,30.60
2018-04-24T22:52:03.382Z,31.03
2018-04-24T22:54:30.961Z,30.50
2018-04-24T22:56:58.520Z,31.43
2018-04-24T22:59:26.100Z,30.10
2018-04-24T23:01:53.684Z,33.30
2018-04-24T23:04:21.260Z,33.73
2018-04-24T23:06:48.819Z,33.37
2018-04-24T23:09:16.392Z,32.90
2018-04-24T23:11:55.899Z,30.20
2018-04-24T23:14:36.177Z,37.90
2018-04-24T23:17:16.209Z,37.63
2018-04-24T23:19:55.687Z,33.80
2018-04-24T23:22:30.590Z,35.73
2018-04-24T23:24:58.163Z,36.53
2018-04-24T23:27:25.724Z,38.20
2018-04-24T23:29:53.284Z,37.83
2018-04-24T23:32:20.858Z,40.97
2018-04-24T23:34:48.408Z,38.57
2018-04-24T23:37:15.975Z,35.37
2018-04-24T23:39:43.540Z,40.57
2018-04-24T23:42:11.887Z,39.07
2018-04-24T23:44:39.442Z,39.53
2018-04-24T23:47:07.024Z,37.43
2018-04-24T23:49:34.597Z,37.80
2018-04-24T23:52:02.197Z,35.97
2018-04-24T23:54:29.765Z,36.07
2018-04-24T23:56:57.346Z,37.47
2018-04-24T23:59:24.920Z,36.20
